LSZC Airport Information

Runway Information
Runway 07L Length 6561 ft width 130 ft
Elevation 1475 ft Threshold 200 ft Heading 62
Runway 25R Length 6561 ft Width 130 ft
Elevation 1435 ft Threshold 200 ft Heading 242
Runway 07R Length 4921 ft width 130 ft
Elevation 1475 ft Threshold 0 ft Heading 62
Runway 25L Length 4921 ft Width 130 ft
Elevation 1445 ft Threshold 0 ft Heading 242
Airport Frequencies
Type Air to Air Name INFO Frequency 134.125 MHZ
Type ARR ALPNAC Name Alpnach To Frequency 128.475 MHZ
Type ARR EMMEN Name Emmen Towe Frequency 120.425 MHZ
Type FIS Name Zurich Inf Frequency 124.7 MHZ
Type GCA Name ARR/DEP Frequency 140.65 MHZ
Type TWR Name TWR Frequency 119.625 MHZ
Airport Navaids
Airport Weather Information & NOTAM
ADDS - METARS form results

(1131 UTC 21 April 2018)
 
METAR text: LSZC 211120Z AUTO 06004KT CAVOK 22/10 Q1021
Conditions at: LSZC (BUOCHS , CH) observed 1120 UTC 21 April 2018
Temperature: 22.0°C (72°F)
Dewpoint: 10.0°C (50°F) [RH = 46%]
Pressure (altimeter): 30.15 inches Hg (1021.0 mb)
Winds: from the ENE (60 degrees) at 5 MPH (4 knots; 2.1 m/s)
Visibility: 6 or more miles (10+ km)
Ceiling: ceiling and visibility are OK
Clouds: unknown
Weather: no significant weather observed at this time

METAR text: LSZC 211050Z AUTO 05004KT CAVOK 21/08 Q1021
Conditions at: LSZC (BUOCHS , CH) observed 1050 UTC 21 April 2018
Temperature: 21.0°C (70°F)
Dewpoint: 8.0°C (46°F) [RH = 43%]
Pressure (altimeter): 30.15 inches Hg (1021.0 mb)
Winds: from the NE (50 degrees) at 5 MPH (4 knots; 2.1 m/s)
Visibility: 6 or more miles (10+ km)
Ceiling: ceiling and visibility are OK
Clouds: unknown
Weather: no significant weather observed at this time